createdAt,value
2022-08-27T00:02:13.391Z,3.22
2022-08-27T00:04:41.410Z,3.50
2022-08-27T00:07:09.322Z,5.95
2022-08-27T00:09:36.441Z,1.75
2022-08-27T00:12:04.115Z,4.22
2022-08-27T00:14:34.544Z,4.57
2022-08-27T00:17:01.625Z,3.20
2022-08-27T00:19:28.509Z,3.35
2022-08-27T00:21:56.264Z,3.10
2022-08-27T00:24:23.266Z,2.92
2022-08-27T00:26:53.357Z,4.05
2022-08-27T00:29:20.835Z,3.10
2022-08-27T00:31:53.326Z,5.28
2022-08-27T00:34:21.879Z,5.47
2022-08-27T00:36:48.943Z,4.72
2022-08-27T00:39:15.841Z,8.50
2022-08-27T00:41:43.436Z,3.45
2022-08-27T00:44:10.552Z,5.32
2022-08-27T00:46:42.374Z,5.43
2022-08-27T00:49:14.072Z,7.60
2022-08-27T00:51:41.042Z,3.25
2022-08-27T00:54:09.432Z,5.10
2022-08-27T00:56:44.329Z,8.02
2022-08-27T00:59:19.774Z,3.88
2022-08-27T01:02:06.140Z,4.38
2022-08-27T01:04:33.460Z,6.20
2022-08-27T01:07:01.638Z,5.15
2022-08-27T01:09:28.930Z,5.00
2022-08-27T01:11:56.317Z,5.53
2022-08-27T01:14:23.672Z,2.92
2022-08-27T01:16:54.448Z,7.78
2022-08-27T01:19:33.471Z,6.85
2022-08-27T01:22:09.873Z,4.32
2022-08-27T01:24:51.916Z,7.60
2022-08-27T01:27:22.236Z,5.80
2022-08-27T01:29:49.173Z,7.18
2022-08-27T01:32:21.845Z,6.72
2022-08-27T01:34:48.992Z,4.75
2022-08-27T01:37:17.235Z,3.50
2022-08-27T01:39:50.792Z,4.97
2022-08-27T01:42:29.019Z,2.85
2022-08-27T01:45:24.981Z,2.70
2022-08-27T01:47:52.175Z,4.10
2022-08-27T01:50:25.157Z,4.20
2022-08-27T01:52:52.436Z,3.42
2022-08-27T01:55:23.115Z,5.07
2022-08-27T01:57:50.057Z,7.30
2022-08-27T02:00:22.664Z,7.78
2022-08-27T02:02:49.902Z,5.80
2022-08-27T02:05:16.744Z,7.03
2022-08-27T02:07:43.895Z,4.70
2022-08-27T02:10:12.809Z,8.65
2022-08-27T02:12:39.610Z,11.20
2022-08-27T02:15:07.090Z,10.38
2022-08-27T02:17:34.364Z,7.93
2022-08-27T02:20:01.628Z,4.50
2022-08-27T02:22:28.539Z,8.50
2022-08-27T02:24:55.383Z,6.85
2022-08-27T02:27:22.219Z,4.47
2022-08-27T02:29:51.727Z,6.43
2022-08-27T02:32:31.114Z,5.40
2022-08-27T02:34:59.462Z,6.72
2022-08-27T02:37:26.631Z,5.72
2022-08-27T02:39:53.602Z,5.05
2022-08-27T02:42:20.532Z,6.18
2022-08-27T02:44:47.550Z,5.82
2022-08-27T02:47:15.414Z,6.32
2022-08-27T02:49:43.441Z,8.60
2022-08-27T02:52:12.040Z,10.18
2022-08-27T02:54:40.344Z,9.43
2022-08-27T02:57:07.500Z,9.48
2022-08-27T02:59:34.461Z,17.05
2022-08-27T03:02:01.454Z,10.63
2022-08-27T03:04:29.422Z,12.05
2022-08-27T03:06:56.886Z,14.23
2022-08-27T03:09:23.767Z,13.55
2022-08-27T03:11:50.581Z,11.27
2022-08-27T03:14:17.425Z,23.20
2022-08-27T03:16:44.188Z,19.65
2022-08-27T03:19:11.063Z,22.92
2022-08-27T03:21:37.955Z,19.73
2022-08-27T03:24:11.610Z,19.35
2022-08-27T03:26:41.651Z,10.60
2022-08-27T03:29:08.422Z,15.52
2022-08-27T03:31:35.303Z,11.35
2022-08-27T03:34:06.779Z,10.25
2022-08-27T03:36:33.792Z,12.88
2022-08-27T03:39:00.570Z,17.33
2022-08-27T03:41:54.197Z,15.35
2022-08-27T03:44:21.207Z,12.40
2022-08-27T03:46:49.360Z,15.05
2022-08-27T03:49:20.367Z,11.75
2022-08-27T03:51:48.770Z,9.40
2022-08-27T03:54:15.659Z,12.73
2022-08-27T03:56:42.479Z,9.88
2022-08-27T03:59:09.305Z,5.82
2022-08-27T04:01:36.264Z,9.07
2022-08-27T04:04:03.646Z,9.88
2022-08-27T04:06:30.480Z,12.35
2022-08-27T04:08:57.229Z,9.02
2022-08-27T04:11:24.248Z,9.52
2022-08-27T04:13:51.435Z,10.32
2022-08-27T04:16:18.425Z,12.90
2022-08-27T04:18:45.202Z,9.70
2022-08-27T04:21:13.581Z,12.07
2022-08-27T04:23:42.066Z,12.55
2022-08-27T04:26:11.145Z,8.68
2022-08-27T04:28:38.930Z,13.07
2022-08-27T04:31:06.908Z,7.63
2022-08-27T04:33:39.790Z,7.03
2022-08-27T04:36:10.081Z,18.80
2022-08-27T04:38:37.708Z,9.38
2022-08-27T04:41:26.526Z,6.30
2022-08-27T04:43:58.372Z,14.05
2022-08-27T04:46:25.492Z,11.00
2022-08-27T04:48:53.019Z,13.00
2022-08-27T04:51:21.192Z,11.10
2022-08-27T04:53:49.999Z,10.13
2022-08-27T04:56:19.041Z,6.22
2022-08-27T04:58:45.849Z,10.52
2022-08-27T05:01:39.742Z,9.25
2022-08-27T05:04:07.549Z,12.13
2022-08-27T05:06:35.125Z,12.68
2022-08-27T05:09:02.412Z,9.82
2022-08-27T05:11:32.433Z,10.88
2022-08-27T05:13:59.455Z,15.88
2022-08-27T05:16:26.272Z,17.20
2022-08-27T05:18:53.912Z,7.93
2022-08-27T05:21:26.670Z,9.43
2022-08-27T05:23:54.741Z,16.27
2022-08-27T05:26:21.865Z,9.00
2022-08-27T05:28:48.792Z,9.40
2022-08-27T05:31:17.049Z,9.43
2022-08-27T05:33:44.277Z,11.57
2022-08-27T05:36:16.984Z,8.18
2022-08-27T05:38:43.870Z,15.73
2022-08-27T05:41:15.986Z,9.10
2022-08-27T05:43:49.187Z,10.57
2022-08-27T05:46:19.036Z,12.23
2022-08-27T05:48:46.278Z,14.18
2022-08-27T05:51:25.132Z,12.18
2022-08-27T05:53:58.358Z,12.80
2022-08-27T05:56:27.023Z,13.13
2022-08-27T05:59:12.632Z,11.63
2022-08-27T06:01:45.535Z,15.43
2022-08-27T06:04:17.973Z,15.02
2022-08-27T06:06:45.623Z,11.13
2022-08-27T06:09:15.298Z,13.52
2022-08-27T06:11:42.164Z,8.90
2022-08-27T06:14:09.581Z,12.63
2022-08-27T06:16:38.050Z,7.75
2022-08-27T06:19:05.620Z,12.07
2022-08-27T06:21:32.495Z,8.48
2022-08-27T06:23:59.553Z,9.60
2022-08-27T06:26:26.892Z,7.57
2022-08-27T06:28:54.012Z,8.35
2022-08-27T06:31:23.963Z,4.72
2022-08-27T06:33:52.044Z,5.22
2022-08-27T06:36:25.477Z,6.65
2022-08-27T06:38:52.705Z,7.85
2022-08-27T06:41:23.550Z,5.55
2022-08-27T06:43:51.299Z,5.60
2022-08-27T06:46:30.764Z,5.43
2022-08-27T06:49:00.273Z,10.52
2022-08-27T06:51:30.239Z,7.75
2022-08-27T06:54:00.210Z,5.78
2022-08-27T06:56:27.169Z,5.72
2022-08-27T06:58:55.444Z,6.53
2022-08-27T07:01:25.704Z,6.20
2022-08-27T07:03:55.363Z,7.28
2022-08-27T07:06:24.980Z,6.03
2022-08-27T07:08:53.666Z,8.13
2022-08-27T07:11:20.891Z,6.65
2022-08-27T07:13:48.465Z,9.07
2022-08-27T07:16:19.620Z,10.07
2022-08-27T07:18:51.377Z,6.53
2022-08-27T07:21:20.146Z,6.50
2022-08-27T07:23:48.626Z,7.43
2022-08-27T07:26:16.312Z,9.27
2022-08-27T07:28:44.150Z,5.63
2022-08-27T07:31:12.922Z,6.45
2022-08-27T07:33:45.399Z,8.40
2022-08-27T07:36:18.466Z,11.48
2022-08-27T07:38:56.731Z,7.05
2022-08-27T07:41:30.660Z,6.78
2022-08-27T07:44:20.617Z,8.25
2022-08-27T07:46:49.015Z,7.60
2022-08-27T07:49:19.206Z,4.78
2022-08-27T07:51:46.279Z,5.85
2022-08-27T07:54:13.265Z,5.28
2022-08-27T07:56:40.105Z,4.22
2022-08-27T07:59:07.004Z,8.75
2022-08-27T08:01:34.024Z,5.72
2022-08-27T08:04:01.412Z,6.18
2022-08-27T08:06:28.767Z,6.85
2022-08-27T08:08:55.792Z,2.88
2022-08-27T08:11:22.629Z,4.22
2022-08-27T08:13:49.533Z,5.40
2022-08-27T08:16:16.472Z,4.97
2022-08-27T08:18:43.274Z,7.65
2022-08-27T08:21:13.241Z,7.15
2022-08-27T08:23:41.013Z,10.02
2022-08-27T08:26:09.160Z,9.73
2022-08-27T08:28:36.750Z,7.75
2022-08-27T08:31:04.103Z,9.40
2022-08-27T08:33:33.882Z,8.93
2022-08-27T08:36:18.616Z,11.30
2022-08-27T08:38:47.346Z,10.32
2022-08-27T08:41:43.709Z,10.88
2022-08-27T08:44:23.917Z,8.43
2022-08-27T08:46:57.274Z,9.63
2022-08-27T08:49:30.266Z,7.60
2022-08-27T08:52:31.219Z,9.38
2022-08-27T08:55:18.816Z,8.25
2022-08-27T08:58:09.762Z,7.28
2022-08-27T09:03:04.123Z,7.38
2022-08-27T09:05:31.132Z,9.98
2022-08-27T09:08:33.006Z,10.13
2022-08-27T09:10:58.770Z,7.75
2022-08-27T09:13:35.701Z,9.30
2022-08-27T09:16:04.643Z,9.63
2022-08-27T09:18:35.206Z,11.50
2022-08-27T09:21:28.304Z,7.45
2022-08-27T09:24:05.587Z,10.55
2022-08-27T09:26:34.980Z,5.25
2022-08-27T09:29:16.557Z,10.73
2022-08-27T09:32:00.894Z,9.68
2022-08-27T09:34:37.861Z,10.25
2022-08-27T09:37:12.146Z,7.85
2022-08-27T09:39:51.051Z,7.25
2022-08-27T09:42:30.152Z,3.72
2022-08-27T09:44:57.786Z,9.75
2022-08-27T09:47:25.041Z,7.38
2022-08-27T09:50:07.906Z,4.32
2022-08-27T09:52:51.400Z,11.15
2022-08-27T09:55:34.597Z,8.95
2022-08-27T09:58:04.282Z,8.05
2022-08-27T10:00:39.682Z,8.02
2022-08-27T10:03:08.233Z,4.53
2022-08-27T10:05:44.844Z,7.45
2022-08-27T10:08:36.316Z,8.05
2022-08-27T10:11:06.015Z,3.65
2022-08-27T10:13:56.809Z,8.20
2022-08-27T10:16:52.858Z,5.45
2022-08-27T10:19:31.664Z,8.20
2022-08-27T10:22:10.374Z,3.30
2022-08-27T10:25:00.866Z,4.47
2022-08-27T10:27:30.287Z,6.43
2022-08-27T10:30:07.576Z,6.90
2022-08-27T10:32:55.209Z,6.22
2022-08-27T10:35:23.791Z,5.13
2022-08-27T10:38:14.715Z,6.30
2022-08-27T10:40:43.760Z,5.88
2022-08-27T10:43:29.065Z,5.22
2022-08-27T10:46:22.799Z,3.40
2022-08-27T10:49:02.138Z,3.10
2022-08-27T10:51:41.628Z,4.38
2022-08-27T10:54:29.347Z,4.53
2022-08-27T10:57:28.610Z,6.28
2022-08-27T11:00:01.700Z,3.08
2022-08-27T11:02:36.239Z,3.55
2022-08-27T11:05:13.251Z,3.75
2022-08-27T11:07:44.206Z,3.63
2022-08-27T11:12:50.523Z,3.80
2022-08-27T11:15:27.696Z,3.53
2022-08-27T11:18:12.830Z,4.85
2022-08-27T11:20:57.133Z,6.32
2022-08-27T11:23:29.074Z,3.97
2022-08-27T11:26:02.363Z,3.60
2022-08-27T11:28:49.305Z,5.05
2022-08-27T11:31:36.072Z,5.28
2022-08-27T11:34:38.386Z,3.95
2022-08-27T11:37:11.339Z,3.88
2022-08-27T11:40:05.754Z,3.63
2022-08-27T11:42:42.242Z,5.85
2022-08-27T11:45:38.752Z,3.00
2022-08-27T11:48:16.652Z,4.93
2022-08-27T11:51:03.086Z,6.72
2022-08-27T11:53:33.384Z,3.00
2022-08-27T11:56:32.856Z,3.90
2022-08-27T11:59:26.891Z,3.53
2022-08-27T12:01:56.922Z,3.95
2022-08-27T12:04:37.458Z,3.20
2022-08-27T12:07:22.279Z,3.35
2022-08-27T12:10:19.736Z,3.42
2022-08-27T12:12:46.509Z,3.33
2022-08-27T12:16:02.389Z,3.08
2022-08-27T12:19:00.149Z,6.53
2022-08-27T12:21:39.374Z,1.70
2022-08-27T12:24:11.852Z,2.58
2022-08-27T12:26:59.274Z,4.30
2022-08-27T12:29:46.769Z,5.68
2022-08-27T12:32:44.784Z,6.15
2022-08-27T12:35:31.474Z,2.95
2022-08-27T12:38:01.418Z,5.80
2022-08-27T12:43:21.958Z,3.87
2022-08-27T12:45:52.478Z,4.05
2022-08-27T12:48:25.618Z,4.18
2022-08-27T12:50:55.667Z,2.75
2022-08-27T12:53:31.959Z,2.33
2022-08-27T12:56:10.845Z,2.33
2022-08-27T12:58:52.875Z,3.03
2022-08-27T13:01:28.881Z,3.55
2022-08-27T13:03:56.368Z,3.72
2022-08-27T13:06:37.318Z,5.57
2022-08-27T13:11:56.904Z,2.35
2022-08-27T13:14:27.024Z,2.70
2022-08-27T13:17:00.556Z,2.23
2022-08-27T13:19:30.751Z,4.90
2022-08-27T13:21:59.355Z,1.60
2022-08-27T13:24:44.952Z,1.88
2022-08-27T13:27:11.879Z,2.92
2022-08-27T13:29:39.465Z,4.97
2022-08-27T13:32:06.543Z,2.15
2022-08-27T13:34:36.919Z,3.38
2022-08-27T13:37:06.355Z,2.03
2022-08-27T13:39:38.248Z,4.47
2022-08-27T13:42:07.683Z,2.90
2022-08-27T13:44:36.987Z,3.28
2022-08-27T13:47:13.962Z,1.88
2022-08-27T13:49:40.825Z,1.85
2022-08-27T13:52:29.988Z,2.00
2022-08-27T13:55:06.177Z,4.32
2022-08-27T13:57:41.092Z,3.67
2022-08-27T14:00:10.767Z,5.05
2022-08-27T14:02:37.726Z,2.75
2022-08-27T14:05:07.049Z,1.73
2022-08-27T14:07:36.019Z,1.50
2022-08-27T14:10:27.620Z,3.45
2022-08-27T14:12:58.733Z,3.65
2022-08-27T14:15:34.601Z,2.47
2022-08-27T14:18:05.111Z,2.40
2022-08-27T14:20:32.027Z,2.10
2022-08-27T14:22:59.723Z,1.70
2022-08-27T14:25:26.599Z,1.88
2022-08-27T14:27:54.900Z,2.65
2022-08-27T14:30:28.924Z,2.50
2022-08-27T14:32:59.201Z,1.55
2022-08-27T14:35:26.918Z,1.20
2022-08-27T14:37:54.723Z,2.83
2022-08-27T14:40:22.256Z,1.98
2022-08-27T14:42:49.246Z,4.15
2022-08-27T14:45:18.517Z,1.38
2022-08-27T14:47:45.498Z,1.95
2022-08-27T14:50:13.326Z,1.88
2022-08-27T14:52:40.805Z,2.67
2022-08-27T14:55:14.430Z,2.03
2022-08-27T14:57:41.471Z,3.53
2022-08-27T15:00:09.298Z,0.75
2022-08-27T15:02:40.210Z,3.58
2022-08-27T15:05:11.902Z,1.88
2022-08-27T15:07:39.021Z,3.00
2022-08-27T15:10:09.283Z,2.63
2022-08-27T15:12:36.661Z,2.45
2022-08-27T15:15:04.479Z,2.40
2022-08-27T15:17:34.770Z,1.50
2022-08-27T15:20:04.710Z,6.05
2022-08-27T15:22:33.916Z,1.48
2022-08-27T15:25:02.939Z,2.05
2022-08-27T15:27:38.190Z,2.45
2022-08-27T15:30:10.974Z,2.10
2022-08-27T15:32:40.844Z,1.60
2022-08-27T15:35:12.631Z,1.73
2022-08-27T15:37:40.816Z,1.77
2022-08-27T15:40:08.393Z,2.78
2022-08-27T15:42:35.274Z,1.67
2022-08-27T15:45:02.541Z,3.15
2022-08-27T15:47:29.391Z,2.20
2022-08-27T15:49:56.176Z,1.55
2022-08-27T15:52:23.469Z,1.35
2022-08-27T15:54:50.859Z,2.53
2022-08-27T15:57:20.350Z,2.05
2022-08-27T15:59:47.720Z,3.30
2022-08-27T16:02:19.308Z,2.30
2022-08-27T16:07:20.138Z,1.20
2022-08-27T16:09:48.223Z,1.00
2022-08-27T16:12:26.994Z,2.67
2022-08-27T16:14:55.703Z,1.20
2022-08-27T16:17:23.706Z,1.83
2022-08-27T16:19:50.547Z,0.95
2022-08-27T16:22:17.501Z,2.03
2022-08-27T16:24:44.552Z,2.45
2022-08-27T16:27:11.389Z,1.65
2022-08-27T16:29:38.325Z,2.25
2022-08-27T16:32:08.700Z,2.72
2022-08-27T16:34:35.560Z,3.17
2022-08-27T16:37:02.478Z,2.10
2022-08-27T16:39:32.668Z,2.72
2022-08-27T16:42:01.511Z,2.05
2022-08-27T16:44:28.464Z,1.77
2022-08-27T16:46:55.711Z,2.85
2022-08-27T16:49:41.112Z,2.22
2022-08-27T16:52:08.124Z,2.28
2022-08-27T16:54:35.842Z,1.50
2022-08-27T16:57:02.682Z,1.13
2022-08-27T16:59:29.573Z,0.73
2022-08-27T17:01:57.136Z,0.80
2022-08-27T17:04:31.215Z,3.78
2022-08-27T17:07:01.424Z,2.38
2022-08-27T17:09:28.346Z,1.67
2022-08-27T17:11:57.248Z,1.92
2022-08-27T17:14:24.533Z,1.48
2022-08-27T17:16:54.172Z,0.93
2022-08-27T17:19:26.236Z,1.73
2022-08-27T17:21:54.967Z,0.77
2022-08-27T17:24:21.949Z,1.75
2022-08-27T17:26:48.746Z,2.53
2022-08-27T17:29:15.587Z,1.90
2022-08-27T17:31:42.772Z,2.47
2022-08-27T17:34:16.530Z,2.92
2022-08-27T17:36:44.540Z,0.98
2022-08-27T17:39:12.664Z,1.90
2022-08-27T17:41:42.406Z,1.60
2022-08-27T17:44:20.635Z,1.20
2022-08-27T17:46:48.448Z,1.98
2022-08-27T17:49:16.777Z,1.90
2022-08-27T17:51:45.174Z,1.23
2022-08-27T17:54:21.346Z,1.00
2022-08-27T17:56:48.957Z,1.10
2022-08-27T17:59:15.776Z,0.82
2022-08-27T18:01:42.880Z,0.93
2022-08-27T18:04:09.762Z,1.20
2022-08-27T18:06:36.640Z,0.80
2022-08-27T18:09:04.217Z,1.20
2022-08-27T18:11:31.661Z,2.85
2022-08-27T18:14:04.054Z,1.13
2022-08-27T18:16:32.335Z,1.85
2022-08-27T18:18:59.258Z,1.60
2022-08-27T18:21:26.336Z,0.88
2022-08-27T18:23:53.770Z,1.25
2022-08-27T18:26:21.172Z,1.00
2022-08-27T18:28:48.446Z,3.20
2022-08-27T18:31:18.762Z,3.63
2022-08-27T18:33:46.425Z,3.38
2022-08-27T18:36:13.304Z,4.65
2022-08-27T18:38:40.504Z,3.13
2022-08-27T18:41:08.348Z,4.88
2022-08-27T18:43:36.570Z,5.03
2022-08-27T18:46:04.604Z,4.40
2022-08-27T18:48:32.232Z,2.75
2022-08-27T18:51:00.992Z,5.00
2022-08-27T18:53:31.111Z,6.47
2022-08-27T18:55:58.281Z,5.73
2022-08-27T18:58:25.760Z,2.92
2022-08-27T19:00:55.695Z,7.70
2022-08-27T19:03:29.278Z,4.13
2022-08-27T19:05:56.366Z,5.95
2022-08-27T19:08:24.514Z,4.00
2022-08-27T19:10:51.452Z,5.75
2022-08-27T19:13:18.392Z,9.48
2022-08-27T19:15:54.085Z,6.47
2022-08-27T19:18:23.441Z,3.00
2022-08-27T19:20:50.330Z,3.95
2022-08-27T19:23:22.280Z,2.85
2022-08-27T19:25:50.689Z,5.97
2022-08-27T19:28:19.530Z,4.28
2022-08-27T19:30:46.648Z,4.63
2022-08-27T19:33:13.570Z,5.22
2022-08-27T19:35:41.792Z,6.05
2022-08-27T19:38:11.420Z,3.80
2022-08-27T19:40:38.522Z,4.50
2022-08-27T19:43:05.480Z,4.80
2022-08-27T19:45:32.540Z,7.88
2022-08-27T19:47:59.791Z,7.20
2022-08-27T19:50:26.865Z,7.32
2022-08-27T19:52:53.671Z,3.47
2022-08-27T19:55:21.173Z,5.03
2022-08-27T19:57:48.376Z,6.10
2022-08-27T20:00:17.647Z,7.63
2022-08-27T20:02:44.527Z,9.43
2022-08-27T20:05:19.447Z,6.43
2022-08-27T20:07:48.903Z,7.18
2022-08-27T20:10:16.462Z,5.88
2022-08-27T20:12:43.741Z,6.55
2022-08-27T20:15:11.519Z,7.75
2022-08-27T20:17:39.716Z,3.97
2022-08-27T20:20:07.257Z,6.25
2022-08-27T20:22:34.092Z,5.55
2022-08-27T20:25:01.022Z,7.03
2022-08-27T20:27:28.478Z,4.97
2022-08-27T20:29:55.625Z,4.32
2022-08-27T20:32:25.735Z,3.85
2022-08-27T20:34:56.109Z,11.45
2022-08-27T20:37:23.115Z,38.40
2022-08-27T20:39:50.492Z,45.13
2022-08-27T20:42:19.699Z,31.63
2022-08-27T20:44:46.980Z,21.23
2022-08-27T20:47:14.078Z,16.33
2022-08-27T20:49:41.642Z,16.45
2022-08-27T20:52:11.443Z,20.83
2022-08-27T20:54:38.950Z,14.50
2022-08-27T20:57:05.880Z,8.93
2022-08-27T20:59:51.349Z,5.55
2022-08-27T21:02:24.074Z,8.38
2022-08-27T21:04:51.993Z,6.97
2022-08-27T21:07:20.480Z,4.90
2022-08-27T21:09:56.049Z,7.93
2022-08-27T21:12:28.618Z,8.05
2022-08-27T21:14:57.795Z,5.90
2022-08-27T21:17:27.364Z,5.80
2022-08-27T21:19:54.772Z,7.70
2022-08-27T21:22:23.001Z,7.20
2022-08-27T21:24:49.967Z,9.70
2022-08-27T21:27:18.432Z,11.65
2022-08-27T21:29:45.790Z,10.25
2022-08-27T21:32:14.628Z,11.82
2022-08-27T21:34:44.174Z,13.25
2022-08-27T21:37:12.412Z,11.70
2022-08-27T21:39:40.139Z,6.88
2022-08-27T21:42:07.898Z,9.45
2022-08-27T21:44:34.862Z,8.10
2022-08-27T21:47:03.677Z,12.35
2022-08-27T21:49:32.627Z,12.00
2022-08-27T21:52:04.784Z,11.75
2022-08-27T21:54:34.065Z,7.10
2022-08-27T21:57:03.468Z,7.80
2022-08-27T21:59:38.429Z,6.05
2022-08-27T22:02:23.043Z,7.88
2022-08-27T22:04:52.472Z,4.28
2022-08-27T22:07:19.691Z,7.13
2022-08-27T22:09:46.615Z,9.57
2022-08-27T22:12:13.529Z,10.63
2022-08-27T22:14:41.174Z,8.73
2022-08-27T22:17:07.996Z,7.13
2022-08-27T22:19:34.807Z,7.68
2022-08-27T22:22:01.568Z,7.15
2022-08-27T22:24:28.477Z,8.18
2022-08-27T22:26:55.412Z,4.03
2022-08-27T22:29:22.603Z,8.13
2022-08-27T22:31:49.440Z,10.50
2022-08-27T22:34:16.821Z,11.65
2022-08-27T22:36:43.562Z,7.20
2022-08-27T22:39:10.394Z,6.53
2022-08-27T22:41:37.198Z,4.50
2022-08-27T22:44:06.709Z,8.07
2022-08-27T22:46:33.587Z,10.77
2022-08-27T22:49:00.485Z,6.18
2022-08-27T22:51:27.459Z,3.75
2022-08-27T22:53:54.267Z,5.25
2022-08-27T22:56:21.035Z,4.18
2022-08-27T22:58:47.829Z,2.55
2022-08-27T23:01:21.985Z,6.60
2022-08-27T23:03:49.216Z,2.78
2022-08-27T23:06:16.221Z,6.45
2022-08-27T23:08:43.151Z,4.45
2022-08-27T23:11:09.910Z,7.97
2022-08-27T23:13:37.664Z,17.80
2022-08-27T23:16:05.962Z,13.38
2022-08-27T23:18:33.482Z,15.23
2022-08-27T23:21:00.322Z,6.63
2022-08-27T23:23:29.890Z,8.77
2022-08-27T23:26:16.963Z,4.65
2022-08-27T23:28:44.530Z,9.15
2022-08-27T23:31:11.947Z,8.05
2022-08-27T23:33:39.581Z,7.68
2022-08-27T23:36:07.246Z,6.35
2022-08-27T23:38:34.358Z,5.18
2022-08-27T23:41:01.394Z,4.18
2022-08-27T23:43:28.356Z,6.10
2022-08-27T23:45:55.187Z,9.68
2022-08-27T23:48:22.093Z,10.45
2022-08-27T23:50:48.960Z,7.43
2022-08-27T23:53:15.860Z,12.25
2022-08-27T23:55:42.683Z,9.90
2022-08-27T23:58:10.062Z,12.27
